Etna, New York
Current Conditions -  °F | °C
As of 7:56 PM on Thursday 18 Dec 2014 (Local Time) from KITH Reporting Station
Light Snow Light Snow  
Wind Chill: 20°   Ceiling: 700
Heat Index: 30°   Visibility: 3mi
Dew Point: 28°   Wind: 14mph
Humidity: 92%   Direction: 330°NNW
Pressure: 30.02"   Gusts: NA
Location:  42.48°N, 76.38°W
Report Text: KITH 190056Z 33012KT 3SM -SN BR BKN007 OVC018 M01/M02 A3002 RMK AO2 T10111022 FZRAE51SNB32E33B51 P0000 SLP180
Loading
Personal Weather Stations






























Interactive Weather Map New forecast layout! Learn more

10-Day Weather Forecast

Advertisements
Track Severe Weather on mobile